sensor_id;sensor_type;location;lat;lon;timestamp;temperature;humidity
56046;DHT22;41913;51.030;3.706;2022-12-29T00:02:03;15.00;94.30
56046;DHT22;41913;51.030;3.706;2022-12-29T00:04:29;15.00;94.30
56046;DHT22;41913;51.030;3.706;2022-12-29T00:06:54;15.00;94.30
56046;DHT22;41913;51.030;3.706;2022-12-29T00:09:20;15.00;94.30
56046;DHT22;41913;51.030;3.706;2022-12-29T00:11:46;15.00;94.30
56046;DHT22;41913;51.030;3.706;2022-12-29T00:14:12;15.00;94.30
56046;DHT22;41913;51.030;3.706;2022-12-29T00:16:57;15.00;94.30
56046;DHT22;41913;51.030;3.706;2022-12-29T00:19:23;15.00;94.40
56046;DHT22;41913;51.030;3.706;2022-12-29T00:22:10;15.00;94.40
56046;DHT22;41913;51.030;3.706;2022-12-29T00:24:55;15.00;94.40
56046;DHT22;41913;51.030;3.706;2022-12-29T00:27:39;15.00;94.40
56046;DHT22;41913;51.030;3.706;2022-12-29T00:30:23;15.00;94.40
56046;DHT22;41913;51.030;3.706;2022-12-29T00:33:11;15.00;94.40
56046;DHT22;41913;51.030;3.706;2022-12-29T00:36:10;15.00;94.50
56046;DHT22;41913;51.030;3.706;2022-12-29T00:38:38;15.00;94.40
56046;DHT22;41913;51.030;3.706;2022-12-29T00:41:24;15.00;94.50
56046;DHT22;41913;51.030;3.706;2022-12-29T00:44:10;15.00;94.50
56046;DHT22;41913;51.030;3.706;2022-12-29T00:46:41;15.00;94.50
56046;DHT22;41913;51.030;3.706;2022-12-29T00:49:09;15.00;94.50
56046;DHT22;41913;51.030;3.706;2022-12-29T00:51:54;15.00;94.50
56046;DHT22;41913;51.030;3.706;2022-12-29T00:54:21;15.00;94.50
56046;DHT22;41913;51.030;3.706;2022-12-29T00:56:47;15.00;94.50
56046;DHT22;41913;51.030;3.706;2022-12-29T00:59:13;15.00;94.50
56046;DHT22;41913;51.030;3.706;2022-12-29T01:01:39;15.00;94.60
56046;DHT22;41913;51.030;3.706;2022-12-29T01:04:06;15.00;94.60
56046;DHT22;41913;51.030;3.706;2022-12-29T01:06:33;15.00;94.60
56046;DHT22;41913;51.030;3.706;2022-12-29T01:08:59;15.00;94.60
56046;DHT22;41913;51.030;3.706;2022-12-29T01:11:43;15.00;94.80
56046;DHT22;41913;51.030;3.706;2022-12-29T01:14:09;15.00;94.60
56046;DHT22;41913;51.030;3.706;2022-12-29T01:16:34;15.00;94.60
56046;DHT22;41913;51.030;3.706;2022-12-29T01:19:02;15.00;94.60
56046;DHT22;41913;51.030;3.706;2022-12-29T01:21:28;15.00;94.60
56046;DHT22;41913;51.030;3.706;2022-12-29T01:23:54;15.00;94.60
56046;DHT22;41913;51.030;3.706;2022-12-29T01:26:19;15.10;94.60
56046;DHT22;41913;51.030;3.706;2022-12-29T01:28:45;15.00;94.60
56046;DHT22;41913;51.030;3.706;2022-12-29T01:31:12;15.00;94.60
56046;DHT22;41913;51.030;3.706;2022-12-29T01:33:39;15.10;94.60
56046;DHT22;41913;51.030;3.706;2022-12-29T01:36:07;15.00;94.60
56046;DHT22;41913;51.030;3.706;2022-12-29T01:38:34;15.00;94.60
56046;DHT22;41913;51.030;3.706;2022-12-29T01:40:59;15.00;94.60
56046;DHT22;41913;51.030;3.706;2022-12-29T01:49:02;15.00;94.60
56046;DHT22;41913;51.030;3.706;2022-12-29T01:51:31;15.00;94.70
56046;DHT22;41913;51.030;3.706;2022-12-29T01:53:59;15.00;94.70
56046;DHT22;41913;51.030;3.706;2022-12-29T01:56:28;15.00;94.70
56046;DHT22;41913;51.030;3.706;2022-12-29T01:59:01;15.10;94.70
56046;DHT22;41913;51.030;3.706;2022-12-29T02:01:28;15.00;94.70
56046;DHT22;41913;51.030;3.706;2022-12-29T02:03:53;15.00;94.70
56046;DHT22;41913;51.030;3.706;2022-12-29T02:06:26;15.00;94.70
56046;DHT22;41913;51.030;3.706;2022-12-29T02:08:55;15.10;94.70
56046;DHT22;41913;51.030;3.706;2022-12-29T02:11:23;15.10;94.70
56046;DHT22;41913;51.030;3.706;2022-12-29T02:13:50;15.10;94.70
56046;DHT22;41913;51.030;3.706;2022-12-29T02:19:32;15.10;94.70
56046;DHT22;41913;51.030;3.706;2022-12-29T02:30:06;15.10;94.70
56046;DHT22;41913;51.030;3.706;2022-12-29T02:40:54;15.00;94.60
56046;DHT22;41913;51.030;3.706;2022-12-29T02:43:30;15.00;94.70
56046;DHT22;41913;51.030;3.706;2022-12-29T02:46:09;15.00;94.70
56046;DHT22;41913;51.030;3.706;2022-12-29T02:51:37;15.00;94.60
56046;DHT22;41913;51.030;3.706;2022-12-29T02:54:04;15.10;94.80
56046;DHT22;41913;51.030;3.706;2022-12-29T02:56:49;15.00;94.70
56046;DHT22;41913;51.030;3.706;2022-12-29T02:59:15;15.00;94.70
56046;DHT22;41913;51.030;3.706;2022-12-29T03:05:10;15.00;94.70
56046;DHT22;41913;51.030;3.706;2022-12-29T03:07:52;15.10;94.70
56046;DHT22;41913;51.030;3.706;2022-12-29T03:19:21;15.00;94.70
56046;DHT22;41913;51.030;3.706;2022-12-29T03:21:55;15.00;94.70
56046;DHT22;41913;51.030;3.706;2022-12-29T03:24:43;15.00;94.70
56046;DHT22;41913;51.030;3.706;2022-12-29T03:27:14;15.00;94.70
56046;DHT22;41913;51.030;3.706;2022-12-29T03:29:54;15.00;94.70
56046;DHT22;41913;51.030;3.706;2022-12-29T03:32:27;15.00;94.70
56046;DHT22;41913;51.030;3.706;2022-12-29T03:34:54;15.00;94.70
56046;DHT22;41913;51.030;3.706;2022-12-29T03:37:27;15.00;94.70
56046;DHT22;41913;51.030;3.706;2022-12-29T03:39:56;15.10;94.70
56046;DHT22;41913;51.030;3.706;2022-12-29T03:42:24;15.10;94.70
56046;DHT22;41913;51.030;3.706;2022-12-29T03:44:54;15.10;94.70
56046;DHT22;41913;51.030;3.706;2022-12-29T03:47:22;15.10;94.70
56046;DHT22;41913;51.030;3.706;2022-12-29T03:49:48;15.10;94.70
56046;DHT22;41913;51.030;3.706;2022-12-29T03:52:14;15.10;94.80
56046;DHT22;41913;51.030;3.706;2022-12-29T03:54:40;15.10;94.70
56046;DHT22;41913;51.030;3.706;2022-12-29T03:57:06;15.10;94.70
56046;DHT22;41913;51.030;3.706;2022-12-29T03:59:31;15.10;94.70
56046;DHT22;41913;51.030;3.706;2022-12-29T04:01:58;15.10;94.70
56046;DHT22;41913;51.030;3.706;2022-12-29T04:04:24;15.10;94.70
56046;DHT22;41913;51.030;3.706;2022-12-29T04:06:50;15.10;94.70
56046;DHT22;41913;51.030;3.706;2022-12-29T04:09:15;15.10;94.70
56046;DHT22;41913;51.030;3.706;2022-12-29T04:11:41;15.10;94.70
56046;DHT22;41913;51.030;3.706;2022-12-29T04:14:07;15.10;94.70
56046;DHT22;41913;51.030;3.706;2022-12-29T04:16:32;15.10;94.70
56046;DHT22;41913;51.030;3.706;2022-12-29T04:19:01;15.10;94.80
56046;DHT22;41913;51.030;3.706;2022-12-29T04:21:27;15.10;94.70
56046;DHT22;41913;51.030;3.706;2022-12-29T04:23:53;15.10;94.70
56046;DHT22;41913;51.030;3.706;2022-12-29T04:26:18;15.10;94.70
56046;DHT22;41913;51.030;3.706;2022-12-29T04:28:44;15.10;94.70
56046;DHT22;41913;51.030;3.706;2022-12-29T04:31:10;15.10;94.70
56046;DHT22;41913;51.030;3.706;2022-12-29T04:33:35;15.10;94.70
56046;DHT22;41913;51.030;3.706;2022-12-29T04:36:01;15.10;94.70
56046;DHT22;41913;51.030;3.706;2022-12-29T04:38:27;15.10;94.70
56046;DHT22;41913;51.030;3.706;2022-12-29T04:40:53;15.10;94.70
56046;DHT22;41913;51.030;3.706;2022-12-29T04:43:19;15.10;94.70
56046;DHT22;41913;51.030;3.706;2022-12-29T04:45:45;15.10;94.70
56046;DHT22;41913;51.030;3.706;2022-12-29T04:48:11;15.10;94.70
56046;DHT22;41913;51.030;3.706;2022-12-29T04:50:38;15.10;94.70
56046;DHT22;41913;51.030;3.706;2022-12-29T04:53:03;15.10;94.70
56046;DHT22;41913;51.030;3.706;2022-12-29T04:55:29;15.10;94.70
56046;DHT22;41913;51.030;3.706;2022-12-29T04:57:55;15.10;94.70
56046;DHT22;41913;51.030;3.706;2022-12-29T05:00:21;15.10;94.70
56046;DHT22;41913;51.030;3.706;2022-12-29T05:02:46;15.10;94.70
56046;DHT22;41913;51.030;3.706;2022-12-29T05:05:12;15.10;94.70
56046;DHT22;41913;51.030;3.706;2022-12-29T05:07:38;15.10;94.70
56046;DHT22;41913;51.030;3.706;2022-12-29T05:10:05;15.10;94.70
56046;DHT22;41913;51.030;3.706;2022-12-29T05:12:32;15.10;94.70
56046;DHT22;41913;51.030;3.706;2022-12-29T05:14:58;15.10;94.70
56046;DHT22;41913;51.030;3.706;2022-12-29T05:17:24;15.10;94.70
56046;DHT22;41913;51.030;3.706;2022-12-29T05:19:50;15.10;94.70
56046;DHT22;41913;51.030;3.706;2022-12-29T05:22:16;15.10;94.70
56046;DHT22;41913;51.030;3.706;2022-12-29T05:24:43;15.10;94.70
56046;DHT22;41913;51.030;3.706;2022-12-29T05:27:08;15.10;94.70
56046;DHT22;41913;51.030;3.706;2022-12-29T05:29:34;15.10;94.70
56046;DHT22;41913;51.030;3.706;2022-12-29T05:32:01;15.10;94.70
56046;DHT22;41913;51.030;3.706;2022-12-29T05:34:26;15.10;94.70
56046;DHT22;41913;51.030;3.706;2022-12-29T05:36:52;15.10;94.70
56046;DHT22;41913;51.030;3.706;2022-12-29T05:39:18;15.10;94.70
56046;DHT22;41913;51.030;3.706;2022-12-29T05:41:43;15.10;94.70
56046;DHT22;41913;51.030;3.706;2022-12-29T05:44:10;15.10;94.60
56046;DHT22;41913;51.030;3.706;2022-12-29T05:46:36;15.10;94.60
56046;DHT22;41913;51.030;3.706;2022-12-29T05:49:02;15.10;94.60
56046;DHT22;41913;51.030;3.706;2022-12-29T05:51:28;15.10;94.60
56046;DHT22;41913;51.030;3.706;2022-12-29T05:53:53;15.10;94.60
56046;DHT22;41913;51.030;3.706;2022-12-29T05:56:19;15.10;94.60
56046;DHT22;41913;51.030;3.706;2022-12-29T05:58:45;15.10;94.60
56046;DHT22;41913;51.030;3.706;2022-12-29T06:01:11;15.10;94.60
56046;DHT22;41913;51.030;3.706;2022-12-29T06:03:36;15.10;94.60
56046;DHT22;41913;51.030;3.706;2022-12-29T06:06:02;15.10;94.60
56046;DHT22;41913;51.030;3.706;2022-12-29T06:08:28;15.10;94.60
56046;DHT22;41913;51.030;3.706;2022-12-29T06:10:53;15.10;94.60
56046;DHT22;41913;51.030;3.706;2022-12-29T06:13:19;15.10;94.60
56046;DHT22;41913;51.030;3.706;2022-12-29T06:15:44;15.10;94.60
56046;DHT22;41913;51.030;3.706;2022-12-29T06:18:10;15.10;94.60
56046;DHT22;41913;51.030;3.706;2022-12-29T06:20:36;15.10;94.60
56046;DHT22;41913;51.030;3.706;2022-12-29T06:23:01;15.10;94.60
56046;DHT22;41913;51.030;3.706;2022-12-29T06:25:27;15.10;94.60
56046;DHT22;41913;51.030;3.706;2022-12-29T06:27:53;15.10;94.60
56046;DHT22;41913;51.030;3.706;2022-12-29T06:30:19;15.10;94.60
56046;DHT22;41913;51.030;3.706;2022-12-29T06:32:45;15.10;94.60
56046;DHT22;41913;51.030;3.706;2022-12-29T06:35:11;15.10;94.60
56046;DHT22;41913;51.030;3.706;2022-12-29T06:37:36;15.10;94.60
56046;DHT22;41913;51.030;3.706;2022-12-29T06:40:02;15.10;94.60
56046;DHT22;41913;51.030;3.706;2022-12-29T06:42:28;15.10;94.60
56046;DHT22;41913;51.030;3.706;2022-12-29T06:44:54;15.10;94.60
56046;DHT22;41913;51.030;3.706;2022-12-29T06:47:22;15.10;94.60
56046;DHT22;41913;51.030;3.706;2022-12-29T06:49:47;15.10;94.60
56046;DHT22;41913;51.030;3.706;2022-12-29T06:52:13;15.10;94.60
56046;DHT22;41913;51.030;3.706;2022-12-29T06:54:39;15.10;94.60
56046;DHT22;41913;51.030;3.706;2022-12-29T06:57:04;15.10;94.60
56046;DHT22;41913;51.030;3.706;2022-12-29T06:59:30;15.10;94.60
56046;DHT22;41913;51.030;3.706;2022-12-29T07:01:55;15.10;94.60
56046;DHT22;41913;51.030;3.706;2022-12-29T07:04:21;15.10;94.60
56046;DHT22;41913;51.030;3.706;2022-12-29T07:06:47;15.10;94.50
56046;DHT22;41913;51.030;3.706;2022-12-29T07:09:13;15.10;94.50
56046;DHT22;41913;51.030;3.706;2022-12-29T07:11:38;15.10;94.60
56046;DHT22;41913;51.030;3.706;2022-12-29T07:14:04;15.10;94.50
56046;DHT22;41913;51.030;3.706;2022-12-29T07:16:29;15.10;94.60
56046;DHT22;41913;51.030;3.706;2022-12-29T07:18:58;15.10;94.50
56046;DHT22;41913;51.030;3.706;2022-12-29T07:21:25;15.10;94.50
56046;DHT22;41913;51.030;3.706;2022-12-29T07:23:51;15.10;94.50
56046;DHT22;41913;51.030;3.706;2022-12-29T07:26:17;15.10;94.50
56046;DHT22;41913;51.030;3.706;2022-12-29T07:28:43;15.10;94.50
56046;DHT22;41913;51.030;3.706;2022-12-29T07:31:18;15.10;94.50
56046;DHT22;41913;51.030;3.706;2022-12-29T07:33:45;15.10;94.50
56046;DHT22;41913;51.030;3.706;2022-12-29T07:36:11;15.10;94.50
56046;DHT22;41913;51.030;3.706;2022-12-29T07:38:37;15.10;94.50
56046;DHT22;41913;51.030;3.706;2022-12-29T07:41:03;15.10;94.50
56046;DHT22;41913;51.030;3.706;2022-12-29T07:43:29;15.10;94.50
56046;DHT22;41913;51.030;3.706;2022-12-29T07:45:56;15.10;94.50
56046;DHT22;41913;51.030;3.706;2022-12-29T07:48:22;15.10;94.50
56046;DHT22;41913;51.030;3.706;2022-12-29T07:50:48;15.10;94.50
56046;DHT22;41913;51.030;3.706;2022-12-29T07:53:13;15.10;94.50
56046;DHT22;41913;51.030;3.706;2022-12-29T07:55:39;15.10;94.50
56046;DHT22;41913;51.030;3.706;2022-12-29T07:58:05;15.10;94.50
56046;DHT22;41913;51.030;3.706;2022-12-29T08:00:31;15.10;94.50
56046;DHT22;41913;51.030;3.706;2022-12-29T08:02:56;15.10;94.50
56046;DHT22;41913;51.030;3.706;2022-12-29T08:05:23;15.10;94.50
56046;DHT22;41913;51.030;3.706;2022-12-29T08:07:48;15.10;94.50
56046;DHT22;41913;51.030;3.706;2022-12-29T08:10:15;15.10;94.50
56046;DHT22;41913;51.030;3.706;2022-12-29T08:12:42;15.10;94.50
56046;DHT22;41913;51.030;3.706;2022-12-29T08:15:11;15.10;94.40
56046;DHT22;41913;51.030;3.706;2022-12-29T08:17:37;15.10;94.40
56046;DHT22;41913;51.030;3.706;2022-12-29T08:20:03;15.10;94.40
56046;DHT22;41913;51.030;3.706;2022-12-29T08:22:29;15.10;94.40
56046;DHT22;41913;51.030;3.706;2022-12-29T08:24:55;15.10;94.40
56046;DHT22;41913;51.030;3.706;2022-12-29T08:27:21;15.10;94.40
56046;DHT22;41913;51.030;3.706;2022-12-29T08:29:47;15.10;94.40
56046;DHT22;41913;51.030;3.706;2022-12-29T08:32:12;15.10;94.40
56046;DHT22;41913;51.030;3.706;2022-12-29T08:34:38;15.10;94.40
56046;DHT22;41913;51.030;3.706;2022-12-29T08:37:04;15.10;94.40
56046;DHT22;41913;51.030;3.706;2022-12-29T08:39:29;15.10;94.40
56046;DHT22;41913;51.030;3.706;2022-12-29T08:41:55;15.10;94.40
56046;DHT22;41913;51.030;3.706;2022-12-29T08:44:21;15.10;94.40
56046;DHT22;41913;51.030;3.706;2022-12-29T08:46:47;15.10;94.40
56046;DHT22;41913;51.030;3.706;2022-12-29T08:49:12;15.10;94.40
56046;DHT22;41913;51.030;3.706;2022-12-29T08:51:38;15.10;94.40
56046;DHT22;41913;51.030;3.706;2022-12-29T08:54:04;15.10;94.40
56046;DHT22;41913;51.030;3.706;2022-12-29T08:56:30;15.10;94.40
56046;DHT22;41913;51.030;3.706;2022-12-29T08:58:55;15.10;94.40
56046;DHT22;41913;51.030;3.706;2022-12-29T09:01:21;15.10;94.40
56046;DHT22;41913;51.030;3.706;2022-12-29T09:03:48;15.10;94.40
56046;DHT22;41913;51.030;3.706;2022-12-29T09:06:15;15.10;94.40
56046;DHT22;41913;51.030;3.706;2022-12-29T09:08:42;15.10;94.40
56046;DHT22;41913;51.030;3.706;2022-12-29T09:11:20;15.10;94.40
56046;DHT22;41913;51.030;3.706;2022-12-29T09:13:46;15.10;94.60
56046;DHT22;41913;51.030;3.706;2022-12-29T09:16:12;15.10;94.40
56046;DHT22;41913;51.030;3.706;2022-12-29T09:18:38;15.10;94.40
56046;DHT22;41913;51.030;3.706;2022-12-29T09:21:06;15.00;94.40
56046;DHT22;41913;51.030;3.706;2022-12-29T09:23:33;15.10;94.40
56046;DHT22;41913;51.030;3.706;2022-12-29T09:25:59;15.10;94.40
56046;DHT22;41913;51.030;3.706;2022-12-29T09:28:25;15.10;94.70
56046;DHT22;41913;51.030;3.706;2022-12-29T09:30:51;15.10;94.40
56046;DHT22;41913;51.030;3.706;2022-12-29T09:33:17;15.00;94.40
56046;DHT22;41913;51.030;3.706;2022-12-29T09:35:44;15.00;94.40
56046;DHT22;41913;51.030;3.706;2022-12-29T09:38:11;15.10;94.40
56046;DHT22;41913;51.030;3.706;2022-12-29T09:40:38;15.10;94.40
56046;DHT22;41913;51.030;3.706;2022-12-29T09:43:17;15.10;94.40
56046;DHT22;41913;51.030;3.706;2022-12-29T09:48:41;15.10;94.40
56046;DHT22;41913;51.030;3.706;2022-12-29T09:51:13;15.00;94.40
56046;DHT22;41913;51.030;3.706;2022-12-29T09:53:45;15.10;94.40
56046;DHT22;41913;51.030;3.706;2022-12-29T09:56:19;15.10;94.40
56046;DHT22;41913;51.030;3.706;2022-12-29T09:59:08;15.10;94.40
56046;DHT22;41913;51.030;3.706;2022-12-29T10:02:10;15.10;94.40
56046;DHT22;41913;51.030;3.706;2022-12-29T10:04:37;15.10;94.40
56046;DHT22;41913;51.030;3.706;2022-12-29T10:07:11;15.10;94.40
56046;DHT22;41913;51.030;3.706;2022-12-29T10:18:24;15.10;94.40
56046;DHT22;41913;51.030;3.706;2022-12-29T10:23:53;15.10;94.50
56046;DHT22;41913;51.030;3.706;2022-12-29T10:26:38;15.10;94.50
56046;DHT22;41913;51.030;3.706;2022-12-29T10:29:08;15.00;94.40
56046;DHT22;41913;51.030;3.706;2022-12-29T10:31:44;15.10;94.50
56046;DHT22;41913;51.030;3.706;2022-12-29T10:36:57;15.10;94.50
56046;DHT22;41913;51.030;3.706;2022-12-29T10:39:35;15.10;94.50
56046;DHT22;41913;51.030;3.706;2022-12-29T10:44:50;15.10;94.50
56046;DHT22;41913;51.030;3.706;2022-12-29T10:47:20;15.10;94.50
56046;DHT22;41913;51.030;3.706;2022-12-29T10:49:47;15.10;94.50
56046;DHT22;41913;51.030;3.706;2022-12-29T10:52:15;15.10;94.50
56046;DHT22;41913;51.030;3.706;2022-12-29T10:55:00;15.10;94.50
56046;DHT22;41913;51.030;3.706;2022-12-29T10:59:54;15.10;94.50
56046;DHT22;41913;51.030;3.706;2022-12-29T11:02:52;15.10;94.50
56046;DHT22;41913;51.030;3.706;2022-12-29T11:08:04;15.10;94.50
56046;DHT22;41913;51.030;3.706;2022-12-29T11:13:17;15.10;94.30
56046;DHT22;41913;51.030;3.706;2022-12-29T11:15:44;15.10;94.50
56046;DHT22;41913;51.030;3.706;2022-12-29T11:18:38;15.10;94.70
56046;DHT22;41913;51.030;3.706;2022-12-29T11:24:03;15.10;94.50
56046;DHT22;41913;51.030;3.706;2022-12-29T11:26:32;15.10;94.50
56046;DHT22;41913;51.030;3.706;2022-12-29T11:29:20;15.10;94.50
56046;DHT22;41913;51.030;3.706;2022-12-29T11:34:34;15.10;94.50
56046;DHT22;41913;51.030;3.706;2022-12-29T11:39:41;15.10;94.50
56046;DHT22;41913;51.030;3.706;2022-12-29T11:42:15;15.10;94.50
56046;DHT22;41913;51.030;3.706;2022-12-29T11:44:46;15.10;94.50
56046;DHT22;41913;51.030;3.706;2022-12-29T11:47:33;15.10;94.50
56046;DHT22;41913;51.030;3.706;2022-12-29T11:50:05;15.10;94.40
56046;DHT22;41913;51.030;3.706;2022-12-29T11:52:34;15.10;94.50
56046;DHT22;41913;51.030;3.706;2022-12-29T11:55:03;15.10;94.50
56046;DHT22;41913;51.030;3.706;2022-12-29T11:57:32;15.10;94.50
56046;DHT22;41913;51.030;3.706;2022-12-29T12:00:00;15.10;94.50
56046;DHT22;41913;51.030;3.706;2022-12-29T12:02:48;15.10;94.70
56046;DHT22;41913;51.030;3.706;2022-12-29T12:10:44;15.10;94.40
56046;DHT22;41913;51.030;3.706;2022-12-29T12:15:52;15.10;94.40
56046;DHT22;41913;51.030;3.706;2022-12-29T12:18:47;15.10;94.50
56046;DHT22;41913;51.030;3.706;2022-12-29T12:24:00;15.10;94.50
56046;DHT22;41913;51.030;3.706;2022-12-29T12:26:39;15.10;94.40
56046;DHT22;41913;51.030;3.706;2022-12-29T12:29:14;15.10;94.50
56046;DHT22;41913;51.030;3.706;2022-12-29T12:32:20;15.10;94.50
56046;DHT22;41913;51.030;3.706;2022-12-29T12:34:48;15.10;94.40
56046;DHT22;41913;51.030;3.706;2022-12-29T12:40:30;15.10;94.40
56046;DHT22;41913;51.030;3.706;2022-12-29T12:43:35;15.10;94.40
56046;DHT22;41913;51.030;3.706;2022-12-29T12:57:32;15.00;94.50
56046;DHT22;41913;51.030;3.706;2022-12-29T13:00:10;15.10;94.50
56046;DHT22;41913;51.030;3.706;2022-12-29T13:02:59;15.10;94.50
56046;DHT22;41913;51.030;3.706;2022-12-29T13:10:59;15.10;94.50
56046;DHT22;41913;51.030;3.706;2022-12-29T13:14:11;15.00;94.50
56046;DHT22;41913;51.030;3.706;2022-12-29T13:16:51;15.10;94.50
56046;DHT22;41913;51.030;3.706;2022-12-29T13:35:49;15.00;94.50
56046;DHT22;41913;51.030;3.706;2022-12-29T13:38:39;15.00;94.50
56046;DHT22;41913;51.030;3.706;2022-12-29T13:41:18;15.10;94.50
56046;DHT22;41913;51.030;3.706;2022-12-29T13:43:45;15.10;94.50
56046;DHT22;41913;51.030;3.706;2022-12-29T13:46:38;15.10;94.50
56046;DHT22;41913;51.030;3.706;2022-12-29T13:49:05;15.10;94.50
56046;DHT22;41913;51.030;3.706;2022-12-29T13:51:33;15.10;94.50
56046;DHT22;41913;51.030;3.706;2022-12-29T13:54:24;15.10;94.50
56046;DHT22;41913;51.030;3.706;2022-12-29T13:56:56;15.10;94.50
56046;DHT22;41913;51.030;3.706;2022-12-29T13:59:52;15.10;94.50
56046;DHT22;41913;51.030;3.706;2022-12-29T14:07:49;15.00;94.50
56046;DHT22;41913;51.030;3.706;2022-12-29T14:10:45;15.10;94.50
56046;DHT22;41913;51.030;3.706;2022-12-29T14:15:42;15.10;94.50
56046;DHT22;41913;51.030;3.706;2022-12-29T14:18:23;15.10;94.50
56046;DHT22;41913;51.030;3.706;2022-12-29T14:20:53;15.10;94.50
56046;DHT22;41913;51.030;3.706;2022-12-29T14:23:36;15.10;94.50
56046;DHT22;41913;51.030;3.706;2022-12-29T14:29:15;15.10;94.50
56046;DHT22;41913;51.030;3.706;2022-12-29T14:31:41;15.10;94.40
56046;DHT22;41913;51.030;3.706;2022-12-29T14:36:36;15.10;94.40
56046;DHT22;41913;51.030;3.706;2022-12-29T14:39:04;15.10;94.40
56046;DHT22;41913;51.030;3.706;2022-12-29T14:41:59;15.10;94.70
56046;DHT22;41913;51.030;3.706;2022-12-29T14:44:26;15.10;94.40
56046;DHT22;41913;51.030;3.706;2022-12-29T14:46:58;15.10;94.40
56046;DHT22;41913;51.030;3.706;2022-12-29T14:49:30;15.00;94.40
56046;DHT22;41913;51.030;3.706;2022-12-29T14:52:28;15.10;94.40
56046;DHT22;41913;51.030;3.706;2022-12-29T14:58:00;15.10;94.60
56046;DHT22;41913;51.030;3.706;2022-12-29T15:00:30;15.10;94.40
56046;DHT22;41913;51.030;3.706;2022-12-29T15:08:04;15.10;94.30
56046;DHT22;41913;51.030;3.706;2022-12-29T15:10:37;15.10;94.30
56046;DHT22;41913;51.030;3.706;2022-12-29T15:13:05;15.10;94.30
56046;DHT22;41913;51.030;3.706;2022-12-29T15:15:38;15.10;94.30
56046;DHT22;41913;51.030;3.706;2022-12-29T15:20:55;15.10;94.30
56046;DHT22;41913;51.030;3.706;2022-12-29T15:23:22;15.10;94.30
56046;DHT22;41913;51.030;3.706;2022-12-29T15:26:08;15.10;94.30
56046;DHT22;41913;51.030;3.706;2022-12-29T15:28:43;15.10;94.30
56046;DHT22;41913;51.030;3.706;2022-12-29T15:31:21;15.10;94.30
56046;DHT22;41913;51.030;3.706;2022-12-29T15:33:51;15.10;94.30
56046;DHT22;41913;51.030;3.706;2022-12-29T15:36:25;15.10;94.50
56046;DHT22;41913;51.030;3.706;2022-12-29T15:38:52;15.10;94.30
56046;DHT22;41913;51.030;3.706;2022-12-29T15:44:29;15.10;94.30
56046;DHT22;41913;51.030;3.706;2022-12-29T15:46:47;15.00;94.20
56046;DHT22;41913;51.030;3.706;2022-12-29T15:49:14;15.10;94.20
56046;DHT22;41913;51.030;3.706;2022-12-29T15:51:40;15.10;94.20
56046;DHT22;41913;51.030;3.706;2022-12-29T15:54:14;15.10;94.20
56046;DHT22;41913;51.030;3.706;2022-12-29T15:56:40;15.10;94.20
56046;DHT22;41913;51.030;3.706;2022-12-29T15:59:26;15.00;94.20
56046;DHT22;41913;51.030;3.706;2022-12-29T16:01:53;15.00;94.20
56046;DHT22;41913;51.030;3.706;2022-12-29T16:04:20;15.10;94.20
56046;DHT22;41913;51.030;3.706;2022-12-29T16:07:00;15.00;94.20
56046;DHT22;41913;51.030;3.706;2022-12-29T16:12:04;15.10;94.20
56046;DHT22;41913;51.030;3.706;2022-12-29T16:14:57;15.00;94.10
56046;DHT22;41913;51.030;3.706;2022-12-29T16:17:29;15.00;94.10
56046;DHT22;41913;51.030;3.706;2022-12-29T16:19:56;15.00;94.10
56046;DHT22;41913;51.030;3.706;2022-12-29T16:22:32;15.00;94.10
56046;DHT22;41913;51.030;3.706;2022-12-29T16:25:19;15.00;94.10
56046;DHT22;41913;51.030;3.706;2022-12-29T16:27:48;15.00;94.10
56046;DHT22;41913;51.030;3.706;2022-12-29T16:30:20;15.00;94.10
56046;DHT22;41913;51.030;3.706;2022-12-29T16:32:49;15.10;94.10
56046;DHT22;41913;51.030;3.706;2022-12-29T16:35:23;15.00;94.10
56046;DHT22;41913;51.030;3.706;2022-12-29T16:40:58;15.00;94.10
56046;DHT22;41913;51.030;3.706;2022-12-29T16:43:32;15.00;94.10
56046;DHT22;41913;51.030;3.706;2022-12-29T16:48:34;15.00;94.10
56046;DHT22;41913;51.030;3.706;2022-12-29T16:51:23;15.00;94.10
56046;DHT22;41913;51.030;3.706;2022-12-29T16:53:54;15.00;94.00
56046;DHT22;41913;51.030;3.706;2022-12-29T16:56:32;15.00;94.10
56046;DHT22;41913;51.030;3.706;2022-12-29T16:59:07;15.00;94.00
56046;DHT22;41913;51.030;3.706;2022-12-29T17:01:38;15.00;94.00
56046;DHT22;41913;51.030;3.706;2022-12-29T17:04:09;15.00;94.00
56046;DHT22;41913;51.030;3.706;2022-12-29T17:06:36;15.00;94.00
56046;DHT22;41913;51.030;3.706;2022-12-29T17:09:02;15.00;94.00
56046;DHT22;41913;51.030;3.706;2022-12-29T17:11:37;15.00;94.20
56046;DHT22;41913;51.030;3.706;2022-12-29T17:16:58;15.00;94.00
56046;DHT22;41913;51.030;3.706;2022-12-29T17:19:35;15.00;94.00
56046;DHT22;41913;51.030;3.706;2022-12-29T17:22:02;15.00;94.00
56046;DHT22;41913;51.030;3.706;2022-12-29T17:24:28;15.00;94.00
56046;DHT22;41913;51.030;3.706;2022-12-29T17:26:57;15.00;94.00
56046;DHT22;41913;51.030;3.706;2022-12-29T17:29:36;15.00;94.00
56046;DHT22;41913;51.030;3.706;2022-12-29T17:32:04;15.00;94.00
56046;DHT22;41913;51.030;3.706;2022-12-29T17:34:31;15.00;94.00
56046;DHT22;41913;51.030;3.706;2022-12-29T17:36:57;15.00;94.00
56046;DHT22;41913;51.030;3.706;2022-12-29T17:39:23;15.00;94.00
56046;DHT22;41913;51.030;3.706;2022-12-29T17:41:48;15.00;94.00
56046;DHT22;41913;51.030;3.706;2022-12-29T17:44:19;15.00;94.00
56046;DHT22;41913;51.030;3.706;2022-12-29T17:46:46;15.00;94.00
56046;DHT22;41913;51.030;3.706;2022-12-29T17:49:16;15.00;93.90
56046;DHT22;41913;51.030;3.706;2022-12-29T17:51:44;15.00;93.90
56046;DHT22;41913;51.030;3.706;2022-12-29T17:54:24;15.00;93.90
56046;DHT22;41913;51.030;3.706;2022-12-29T17:56:50;15.00;93.90
56046;DHT22;41913;51.030;3.706;2022-12-29T17:59:17;15.00;93.90
56046;DHT22;41913;51.030;3.706;2022-12-29T18:01:45;15.00;93.90
56046;DHT22;41913;51.030;3.706;2022-12-29T18:04:13;15.00;93.90
56046;DHT22;41913;51.030;3.706;2022-12-29T18:06:41;15.00;93.90
56046;DHT22;41913;51.030;3.706;2022-12-29T18:09:07;15.00;93.90
56046;DHT22;41913;51.030;3.706;2022-12-29T18:11:39;15.00;93.90
56046;DHT22;41913;51.030;3.706;2022-12-29T18:14:12;15.00;93.90
56046;DHT22;41913;51.030;3.706;2022-12-29T18:16:38;15.00;93.90
56046;DHT22;41913;51.030;3.706;2022-12-29T18:19:04;15.00;93.90
56046;DHT22;41913;51.030;3.706;2022-12-29T18:21:30;15.00;93.90
56046;DHT22;41913;51.030;3.706;2022-12-29T18:23:55;15.00;93.90
56046;DHT22;41913;51.030;3.706;2022-12-29T18:26:26;15.00;93.90
56046;DHT22;41913;51.030;3.706;2022-12-29T18:28:53;15.00;93.90
56046;DHT22;41913;51.030;3.706;2022-12-29T18:31:25;15.00;93.90
56046;DHT22;41913;51.030;3.706;2022-12-29T18:33:51;15.00;93.90